sensor_id;sensor_type;location;lat;lon;timestamp;P1;durP1;ratioP1;P2;durP2;ratioP2
54787;SDS011;59598;48.112;16.280;2022-07-29T00:01:29;2.95;;;2.25;;
54787;SDS011;59598;48.112;16.280;2022-07-29T00:04:03;3.72;;;2.40;;
54787;SDS011;59598;48.112;16.280;2022-07-29T00:06:34;2.83;;;2.25;;
54787;SDS011;59598;48.112;16.280;2022-07-29T00:09:10;2.25;;;1.98;;
54787;SDS011;59598;48.112;16.280;2022-07-29T00:11:44;3.15;;;2.38;;
54787;SDS011;59598;48.112;16.280;2022-07-29T00:14:17;2.60;;;2.40;;
54787;SDS011;59598;48.112;16.280;2022-07-29T00:16:49;4.50;;;2.53;;
54787;SDS011;59598;48.112;16.280;2022-07-29T00:19:22;5.82;;;2.83;;
54787;SDS011;59598;48.112;16.280;2022-07-29T00:21:54;2.88;;;2.33;;
54787;SDS011;59598;48.112;16.280;2022-07-29T00:24:36;2.88;;;2.28;;
54787;SDS011;59598;48.112;16.280;2022-07-29T00:27:07;4.22;;;2.28;;
54787;SDS011;59598;48.112;16.280;2022-07-29T00:29:41;3.53;;;2.27;;
54787;SDS011;59598;48.112;16.280;2022-07-29T00:32:15;3.33;;;2.75;;
54787;SDS011;59598;48.112;16.280;2022-07-29T00:34:47;4.07;;;2.42;;
54787;SDS011;59598;48.112;16.280;2022-07-29T00:37:37;3.60;;;1.77;;
54787;SDS011;59598;48.112;16.280;2022-07-29T00:40:10;2.10;;;1.90;;
54787;SDS011;59598;48.112;16.280;2022-07-29T00:42:44;2.20;;;2.00;;
54787;SDS011;59598;48.112;16.280;2022-07-29T00:45:22;4.13;;;2.35;;
54787;SDS011;59598;48.112;16.280;2022-07-29T00:47:53;2.55;;;2.35;;
54787;SDS011;59598;48.112;16.280;2022-07-29T00:50:29;2.47;;;2.28;;
54787;SDS011;59598;48.112;16.280;2022-07-29T00:53:02;3.17;;;2.78;;
54787;SDS011;59598;48.112;16.280;2022-07-29T00:55:34;2.00;;;1.85;;
54787;SDS011;59598;48.112;16.280;2022-07-29T00:58:05;3.95;;;2.33;;
54787;SDS011;59598;48.112;16.280;2022-07-29T01:00:39;4.22;;;2.30;;
54787;SDS011;59598;48.112;16.280;2022-07-29T01:03:11;3.33;;;2.80;;
54787;SDS011;59598;48.112;16.280;2022-07-29T01:05:43;2.53;;;2.20;;
54787;SDS011;59598;48.112;16.280;2022-07-29T01:08:16;3.13;;;2.25;;
54787;SDS011;59598;48.112;16.280;2022-07-29T01:10:48;3.40;;;2.20;;
54787;SDS011;59598;48.112;16.280;2022-07-29T01:13:21;3.13;;;2.83;;
54787;SDS011;59598;48.112;16.280;2022-07-29T01:15:56;3.03;;;2.50;;
54787;SDS011;59598;48.112;16.280;2022-07-29T01:18:37;2.40;;;2.17;;
54787;SDS011;59598;48.112;16.280;2022-07-29T01:21:27;2.50;;;2.30;;
54787;SDS011;59598;48.112;16.280;2022-07-29T01:30:07;2.58;;;2.38;;
54787;SDS011;59598;48.112;16.280;2022-07-29T01:32:39;3.08;;;2.35;;
54787;SDS011;59598;48.112;16.280;2022-07-29T01:35:33;3.47;;;2.42;;
54787;SDS011;59598;48.112;16.280;2022-07-29T01:38:12;3.45;;;2.60;;
54787;SDS011;59598;48.112;16.280;2022-07-29T01:40:54;4.38;;;2.75;;
54787;SDS011;59598;48.112;16.280;2022-07-29T01:43:49;3.45;;;2.65;;
54787;SDS011;59598;48.112;16.280;2022-07-29T01:46:35;3.05;;;2.40;;
54787;SDS011;59598;48.112;16.280;2022-07-29T01:49:11;2.55;;;2.28;;
54787;SDS011;59598;48.112;16.280;2022-07-29T01:52:00;5.78;;;2.90;;
54787;SDS011;59598;48.112;16.280;2022-07-29T01:54:40;3.00;;;2.47;;
54787;SDS011;59598;48.112;16.280;2022-07-29T01:57:16;2.80;;;2.08;;
54787;SDS011;59598;48.112;16.280;2022-07-29T01:59:49;6.10;;;2.67;;
54787;SDS011;59598;48.112;16.280;2022-07-29T02:02:24;2.65;;;2.45;;
54787;SDS011;59598;48.112;16.280;2022-07-29T02:05:00;4.18;;;2.85;;
54787;SDS011;59598;48.112;16.280;2022-07-29T02:07:33;3.10;;;2.42;;
54787;SDS011;59598;48.112;16.280;2022-07-29T02:10:08;2.63;;;2.42;;
54787;SDS011;59598;48.112;16.280;2022-07-29T02:12:43;3.92;;;2.50;;
54787;SDS011;59598;48.112;16.280;2022-07-29T02:15:16;3.60;;;2.40;;
54787;SDS011;59598;48.112;16.280;2022-07-29T02:17:51;3.80;;;2.67;;
54787;SDS011;59598;48.112;16.280;2022-07-29T02:20:27;4.65;;;3.00;;
54787;SDS011;59598;48.112;16.280;2022-07-29T02:23:00;3.15;;;2.72;;
54787;SDS011;59598;48.112;16.280;2022-07-29T02:25:33;4.22;;;2.50;;
54787;SDS011;59598;48.112;16.280;2022-07-29T02:28:07;3.80;;;2.70;;
54787;SDS011;59598;48.112;16.280;2022-07-29T02:30:40;5.72;;;2.35;;
54787;SDS011;59598;48.112;16.280;2022-07-29T02:33:15;3.17;;;2.63;;
54787;SDS011;59598;48.112;16.280;2022-07-29T02:35:56;2.75;;;2.40;;
54787;SDS011;59598;48.112;16.280;2022-07-29T02:38:31;4.75;;;2.35;;
54787;SDS011;59598;48.112;16.280;2022-07-29T02:41:27;4.85;;;2.92;;
54787;SDS011;59598;48.112;16.280;2022-07-29T02:44:03;2.97;;;2.42;;
54787;SDS011;59598;48.112;16.280;2022-07-29T02:46:42;2.97;;;2.65;;
54787;SDS011;59598;48.112;16.280;2022-07-29T02:52:12;4.13;;;3.03;;
54787;SDS011;59598;48.112;16.280;2022-07-29T02:55:33;3.28;;;2.83;;
54787;SDS011;59598;48.112;16.280;2022-07-29T02:57:55;3.00;;;2.70;;
54787;SDS011;59598;48.112;16.280;2022-07-29T03:00:31;2.78;;;2.47;;
54787;SDS011;59598;48.112;16.280;2022-07-29T03:03:08;4.05;;;2.80;;
54787;SDS011;59598;48.112;16.280;2022-07-29T03:05:43;5.63;;;3.13;;
54787;SDS011;59598;48.112;16.280;2022-07-29T03:08:15;3.22;;;2.78;;
54787;SDS011;59598;48.112;16.280;2022-07-29T03:10:52;2.55;;;2.30;;
54787;SDS011;59598;48.112;16.280;2022-07-29T03:13:29;3.42;;;2.83;;
54787;SDS011;59598;48.112;16.280;2022-07-29T03:16:04;2.92;;;2.60;;
54787;SDS011;59598;48.112;16.280;2022-07-29T03:18:36;3.88;;;3.15;;
54787;SDS011;59598;48.112;16.280;2022-07-29T03:21:08;3.22;;;2.65;;
54787;SDS011;59598;48.112;16.280;2022-07-29T03:23:43;3.10;;;2.53;;
54787;SDS011;59598;48.112;16.280;2022-07-29T03:26:20;3.50;;;3.03;;
54787;SDS011;59598;48.112;16.280;2022-07-29T03:28:51;3.72;;;3.15;;
54787;SDS011;59598;48.112;16.280;2022-07-29T03:31:25;4.80;;;3.22;;
54787;SDS011;59598;48.112;16.280;2022-07-29T03:34:01;4.65;;;3.08;;
54787;SDS011;59598;48.112;16.280;2022-07-29T03:36:35;4.07;;;3.03;;
54787;SDS011;59598;48.112;16.280;2022-07-29T03:39:08;4.50;;;2.70;;
54787;SDS011;59598;48.112;16.280;2022-07-29T03:41:44;3.15;;;2.67;;
54787;SDS011;59598;48.112;16.280;2022-07-29T03:44:22;4.05;;;2.72;;
54787;SDS011;59598;48.112;16.280;2022-07-29T03:46:57;4.45;;;3.20;;
54787;SDS011;59598;48.112;16.280;2022-07-29T03:49:32;4.88;;;3.00;;
54787;SDS011;59598;48.112;16.280;2022-07-29T03:52:08;4.85;;;3.20;;
54787;SDS011;59598;48.112;16.280;2022-07-29T03:54:40;7.20;;;3.17;;
54787;SDS011;59598;48.112;16.280;2022-07-29T03:57:16;3.58;;;2.83;;
54787;SDS011;59598;48.112;16.280;2022-07-29T03:59:51;3.58;;;3.10;;
54787;SDS011;59598;48.112;16.280;2022-07-29T04:02:25;4.55;;;2.88;;
54787;SDS011;59598;48.112;16.280;2022-07-29T04:05:02;5.10;;;3.60;;
54787;SDS011;59598;48.112;16.280;2022-07-29T04:07:39;3.28;;;2.97;;
54787;SDS011;59598;48.112;16.280;2022-07-29T04:10:14;5.13;;;3.10;;
54787;SDS011;59598;48.112;16.280;2022-07-29T04:12:49;4.05;;;3.10;;
54787;SDS011;59598;48.112;16.280;2022-07-29T04:15:23;7.75;;;3.10;;
54787;SDS011;59598;48.112;16.280;2022-07-29T04:18:01;2.97;;;2.60;;
54787;SDS011;59598;48.112;16.280;2022-07-29T04:20:32;2.85;;;2.55;;
54787;SDS011;59598;48.112;16.280;2022-07-29T04:23:04;3.63;;;2.67;;
54787;SDS011;59598;48.112;16.280;2022-07-29T04:25:40;3.83;;;2.63;;
54787;SDS011;59598;48.112;16.280;2022-07-29T04:28:15;7.00;;;2.92;;
54787;SDS011;59598;48.112;16.280;2022-07-29T04:30:48;3.75;;;2.60;;
54787;SDS011;59598;48.112;16.280;2022-07-29T04:33:20;4.05;;;3.35;;
54787;SDS011;59598;48.112;16.280;2022-07-29T04:35:51;2.65;;;2.40;;
54787;SDS011;59598;48.112;16.280;2022-07-29T04:38:22;2.80;;;2.60;;
54787;SDS011;59598;48.112;16.280;2022-07-29T04:40:53;4.88;;;2.80;;
54787;SDS011;59598;48.112;16.280;2022-07-29T04:43:25;3.97;;;2.63;;
54787;SDS011;59598;48.112;16.280;2022-07-29T04:45:58;2.40;;;2.20;;
54787;SDS011;59598;48.112;16.280;2022-07-29T04:48:30;4.38;;;2.53;;
54787;SDS011;59598;48.112;16.280;2022-07-29T04:51:09;3.95;;;3.03;;
54787;SDS011;59598;48.112;16.280;2022-07-29T04:53:45;2.83;;;2.40;;
54787;SDS011;59598;48.112;16.280;2022-07-29T04:56:19;3.13;;;2.83;;
54787;SDS011;59598;48.112;16.280;2022-07-29T04:58:53;2.67;;;2.47;;
54787;SDS011;59598;48.112;16.280;2022-07-29T05:01:26;4.20;;;2.53;;
54787;SDS011;59598;48.112;16.280;2022-07-29T05:03:57;2.88;;;2.47;;
54787;SDS011;59598;48.112;16.280;2022-07-29T05:06:28;3.03;;;2.53;;
54787;SDS011;59598;48.112;16.280;2022-07-29T05:09:09;3.17;;;2.70;;
54787;SDS011;59598;48.112;16.280;2022-07-29T05:11:42;3.42;;;2.75;;
54787;SDS011;59598;48.112;16.280;2022-07-29T05:14:13;2.95;;;2.45;;
54787;SDS011;59598;48.112;16.280;2022-07-29T05:16:44;6.80;;;2.50;;
54787;SDS011;59598;48.112;16.280;2022-07-29T05:19:16;2.55;;;2.13;;
54787;SDS011;59598;48.112;16.280;2022-07-29T05:21:48;3.42;;;2.83;;
54787;SDS011;59598;48.112;16.280;2022-07-29T05:24:20;4.82;;;2.63;;
54787;SDS011;59598;48.112;16.280;2022-07-29T05:27:00;2.92;;;2.55;;
54787;SDS011;59598;48.112;16.280;2022-07-29T05:29:31;2.55;;;2.30;;
54787;SDS011;59598;48.112;16.280;2022-07-29T05:32:03;4.22;;;3.17;;
54787;SDS011;59598;48.112;16.280;2022-07-29T05:34:37;2.53;;;2.33;;
54787;SDS011;59598;48.112;16.280;2022-07-29T05:37:11;4.70;;;2.90;;
54787;SDS011;59598;48.112;16.280;2022-07-29T05:39:45;4.40;;;2.80;;
54787;SDS011;59598;48.112;16.280;2022-07-29T05:42:19;3.97;;;2.63;;
54787;SDS011;59598;48.112;16.280;2022-07-29T05:44:50;4.00;;;2.30;;
54787;SDS011;59598;48.112;16.280;2022-07-29T05:47:22;2.25;;;2.05;;
54787;SDS011;59598;48.112;16.280;2022-07-29T05:49:54;2.67;;;2.17;;
54787;SDS011;59598;48.112;16.280;2022-07-29T05:52:27;5.28;;;2.55;;
54787;SDS011;59598;48.112;16.280;2022-07-29T05:54:58;3.63;;;2.50;;
54787;SDS011;59598;48.112;16.280;2022-07-29T05:57:36;2.90;;;2.50;;
54787;SDS011;59598;48.112;16.280;2022-07-29T06:00:08;3.08;;;2.50;;
54787;SDS011;59598;48.112;16.280;2022-07-29T06:02:40;3.85;;;2.50;;
54787;SDS011;59598;48.112;16.280;2022-07-29T06:05:11;4.10;;;2.53;;
54787;SDS011;59598;48.112;16.280;2022-07-29T06:07:42;2.65;;;2.42;;
54787;SDS011;59598;48.112;16.280;2022-07-29T06:10:16;2.67;;;2.47;;
54787;SDS011;59598;48.112;16.280;2022-07-29T06:12:49;4.03;;;2.40;;
54787;SDS011;59598;48.112;16.280;2022-07-29T06:15:20;2.92;;;2.13;;
54787;SDS011;59598;48.112;16.280;2022-07-29T06:18:00;3.50;;;2.53;;
54787;SDS011;59598;48.112;16.280;2022-07-29T06:23:02;4.88;;;2.85;;
54787;SDS011;59598;48.112;16.280;2022-07-29T06:25:37;3.72;;;2.42;;
54787;SDS011;59598;48.112;16.280;2022-07-29T06:28:13;2.72;;;2.50;;
54787;SDS011;59598;48.112;16.280;2022-07-29T06:30:44;2.15;;;1.90;;
54787;SDS011;59598;48.112;16.280;2022-07-29T06:33:16;2.28;;;1.98;;
54787;SDS011;59598;48.112;16.280;2022-07-29T06:35:51;3.58;;;2.60;;
54787;SDS011;59598;48.112;16.280;2022-07-29T06:38:26;4.10;;;2.28;;
54787;SDS011;59598;48.112;16.280;2022-07-29T06:40:57;3.00;;;2.53;;
54787;SDS011;59598;48.112;16.280;2022-07-29T06:43:35;2.70;;;2.30;;
54787;SDS011;59598;48.112;16.280;2022-07-29T06:46:12;3.15;;;2.45;;
54787;SDS011;59598;48.112;16.280;2022-07-29T06:48:45;2.90;;;2.10;;
54787;SDS011;59598;48.112;16.280;2022-07-29T06:51:20;2.42;;;2.17;;
54787;SDS011;59598;48.112;16.280;2022-07-29T06:53:52;2.85;;;2.00;;
54787;SDS011;59598;48.112;16.280;2022-07-29T06:56:26;5.53;;;2.55;;
54787;SDS011;59598;48.112;16.280;2022-07-29T06:59:07;3.03;;;2.38;;
54787;SDS011;59598;48.112;16.280;2022-07-29T07:01:41;2.60;;;2.20;;
54787;SDS011;59598;48.112;16.280;2022-07-29T07:04:15;2.78;;;2.42;;
54787;SDS011;59598;48.112;16.280;2022-07-29T07:06:46;3.00;;;2.70;;
54787;SDS011;59598;48.112;16.280;2022-07-29T07:09:22;3.08;;;2.63;;
54787;SDS011;59598;48.112;16.280;2022-07-29T07:14:25;4.82;;;2.20;;
54787;SDS011;59598;48.112;16.280;2022-07-29T07:16:57;2.92;;;2.60;;
54787;SDS011;59598;48.112;16.280;2022-07-29T07:19:30;4.38;;;2.47;;
54787;SDS011;59598;48.112;16.280;2022-07-29T07:22:04;3.35;;;2.13;;
54787;SDS011;59598;48.112;16.280;2022-07-29T07:24:35;5.40;;;2.83;;
54787;SDS011;59598;48.112;16.280;2022-07-29T07:27:12;3.10;;;2.35;;
54787;SDS011;59598;48.112;16.280;2022-07-29T07:29:50;2.58;;;2.13;;
54787;SDS011;59598;48.112;16.280;2022-07-29T07:32:27;6.13;;;2.63;;
54787;SDS011;59598;48.112;16.280;2022-07-29T07:35:03;2.60;;;2.15;;
54787;SDS011;59598;48.112;16.280;2022-07-29T07:37:38;2.65;;;2.08;;
54787;SDS011;59598;48.112;16.280;2022-07-29T07:40:13;2.75;;;2.30;;
54787;SDS011;59598;48.112;16.280;2022-07-29T07:42:44;2.35;;;2.13;;
54787;SDS011;59598;48.112;16.280;2022-07-29T07:45:15;3.40;;;2.38;;
54787;SDS011;59598;48.112;16.280;2022-07-29T07:47:48;4.40;;;2.05;;
54787;SDS011;59598;48.112;16.280;2022-07-29T07:50:19;3.72;;;2.40;;
54787;SDS011;59598;48.112;16.280;2022-07-29T07:52:51;3.78;;;2.70;;
54787;SDS011;59598;48.112;16.280;2022-07-29T07:55:23;2.47;;;2.15;;
54787;SDS011;59598;48.112;16.280;2022-07-29T07:57:58;3.40;;;2.10;;
54787;SDS011;59598;48.112;16.280;2022-07-29T08:00:30;2.53;;;2.25;;
54787;SDS011;59598;48.112;16.280;2022-07-29T08:03:02;3.35;;;2.28;;
54787;SDS011;59598;48.112;16.280;2022-07-29T08:05:37;2.50;;;2.17;;
54787;SDS011;59598;48.112;16.280;2022-07-29T08:08:10;2.50;;;2.13;;
54787;SDS011;59598;48.112;16.280;2022-07-29T08:10:42;2.83;;;2.33;;
54787;SDS011;59598;48.112;16.280;2022-07-29T08:13:26;3.42;;;2.28;;
54787;SDS011;59598;48.112;16.280;2022-07-29T08:15:58;2.45;;;2.10;;
54787;SDS011;59598;48.112;16.280;2022-07-29T08:18:42;4.90;;;2.58;;
54787;SDS011;59598;48.112;16.280;2022-07-29T08:21:17;3.92;;;2.85;;
54787;SDS011;59598;48.112;16.280;2022-07-29T08:23:49;3.00;;;2.70;;
54787;SDS011;59598;48.112;16.280;2022-07-29T08:26:48;3.38;;;2.50;;
54787;SDS011;59598;48.112;16.280;2022-07-29T08:29:19;2.22;;;2.03;;
54787;SDS011;59598;48.112;16.280;2022-07-29T08:31:50;2.65;;;2.30;;
54787;SDS011;59598;48.112;16.280;2022-07-29T08:34:21;4.15;;;2.35;;
54787;SDS011;59598;48.112;16.280;2022-07-29T08:36:59;3.10;;;2.25;;
54787;SDS011;59598;48.112;16.280;2022-07-29T08:39:30;2.20;;;2.00;;
54787;SDS011;59598;48.112;16.280;2022-07-29T08:42:01;2.92;;;2.35;;
54787;SDS011;59598;48.112;16.280;2022-07-29T08:44:32;2.40;;;2.00;;
54787;SDS011;59598;48.112;16.280;2022-07-29T08:47:04;4.22;;;2.20;;
54787;SDS011;59598;48.112;16.280;2022-07-29T08:49:36;2.55;;;2.28;;
54787;SDS011;59598;48.112;16.280;2022-07-29T08:52:11;3.38;;;2.55;;
54787;SDS011;59598;48.112;16.280;2022-07-29T08:54:46;2.80;;;2.00;;
54787;SDS011;59598;48.112;16.280;2022-07-29T08:57:19;2.55;;;2.10;;
54787;SDS011;59598;48.112;16.280;2022-07-29T08:59:53;3.00;;;2.70;;
54787;SDS011;59598;48.112;16.280;2022-07-29T09:02:28;2.38;;;2.08;;
54787;SDS011;59598;48.112;16.280;2022-07-29T09:05:09;2.53;;;2.33;;
54787;SDS011;59598;48.112;16.280;2022-07-29T09:07:41;2.22;;;1.95;;
54787;SDS011;59598;48.112;16.280;2022-07-29T09:10:20;2.40;;;2.20;;
54787;SDS011;59598;48.112;16.280;2022-07-29T09:12:52;3.83;;;2.08;;
54787;SDS011;59598;48.112;16.280;2022-07-29T09:15:25;2.78;;;1.95;;
54787;SDS011;59598;48.112;16.280;2022-07-29T09:17:59;2.30;;;1.98;;
54787;SDS011;59598;48.112;16.280;2022-07-29T09:20:30;2.22;;;1.90;;
54787;SDS011;59598;48.112;16.280;2022-07-29T09:23:23;3.13;;;2.05;;
54787;SDS011;59598;48.112;16.280;2022-07-29T09:25:54;3.35;;;2.40;;
54787;SDS011;59598;48.112;16.280;2022-07-29T09:28:28;2.00;;;1.80;;
54787;SDS011;59598;48.112;16.280;2022-07-29T09:31:02;2.22;;;2.03;;
54787;SDS011;59598;48.112;16.280;2022-07-29T09:33:33;1.85;;;1.70;;
54787;SDS011;59598;48.112;16.280;2022-07-29T09:36:06;2.97;;;2.10;;
54787;SDS011;59598;48.112;16.280;2022-07-29T09:38:41;3.30;;;2.25;;
54787;SDS011;59598;48.112;16.280;2022-07-29T09:41:27;1.73;;;1.63;;
54787;SDS011;59598;48.112;16.280;2022-07-29T09:43:59;2.53;;;1.90;;
54787;SDS011;59598;48.112;16.280;2022-07-29T09:46:32;2.03;;;1.80;;
54787;SDS011;59598;48.112;16.280;2022-07-29T09:49:12;2.30;;;2.08;;
54787;SDS011;59598;48.112;16.280;2022-07-29T09:51:45;2.83;;;2.25;;
54787;SDS011;59598;48.112;16.280;2022-07-29T09:57:05;2.63;;;1.90;;
54787;SDS011;59598;48.112;16.280;2022-07-29T09:59:45;1.70;;;1.60;;
54787;SDS011;59598;48.112;16.280;2022-07-29T10:02:36;2.67;;;1.77;;
54787;SDS011;59598;48.112;16.280;2022-07-29T10:05:23;2.08;;;1.88;;
54787;SDS011;59598;48.112;16.280;2022-07-29T10:08:04;3.53;;;2.17;;
54787;SDS011;59598;48.112;16.280;2022-07-29T10:10:42;2.10;;;1.83;;
54787;SDS011;59598;48.112;16.280;2022-07-29T10:13:14;2.15;;;1.98;;
54787;SDS011;59598;48.112;16.280;2022-07-29T10:15:48;2.50;;;2.03;;
54787;SDS011;59598;48.112;16.280;2022-07-29T10:18:21;2.53;;;1.98;;
54787;SDS011;59598;48.112;16.280;2022-07-29T10:23:31;2.85;;;2.17;;
54787;SDS011;59598;48.112;16.280;2022-07-29T10:26:04;2.63;;;1.95;;
54787;SDS011;59598;48.112;16.280;2022-07-29T10:28:40;2.75;;;2.15;;
54787;SDS011;59598;48.112;16.280;2022-07-29T10:31:15;2.35;;;2.10;;
54787;SDS011;59598;48.112;16.280;2022-07-29T10:34:02;3.17;;;2.20;;
54787;SDS011;59598;48.112;16.280;2022-07-29T10:42:56;2.03;;;1.80;;
54787;SDS011;59598;48.112;16.280;2022-07-29T10:45:38;3.45;;;2.30;;
54787;SDS011;59598;48.112;16.280;2022-07-29T10:48:10;2.80;;;2.10;;
54787;SDS011;59598;48.112;16.280;2022-07-29T10:50:57;2.42;;;2.22;;
54787;SDS011;59598;48.112;16.280;2022-07-29T10:53:50;3.00;;;2.58;;
54787;SDS011;59598;48.112;16.280;2022-07-29T10:56:24;3.88;;;2.35;;
54787;SDS011;59598;48.112;16.280;2022-07-29T11:01:51;2.55;;;2.35;;
54787;SDS011;59598;48.112;16.280;2022-07-29T11:07:17;2.45;;;2.17;;
54787;SDS011;59598;48.112;16.280;2022-07-29T11:15:19;2.45;;;2.25;;
54787;SDS011;59598;48.112;16.280;2022-07-29T11:20:37;2.55;;;2.35;;
54787;SDS011;59598;48.112;16.280;2022-07-29T11:23:55;2.72;;;2.33;;
54787;SDS011;59598;48.112;16.280;2022-07-29T11:26:19;4.13;;;2.20;;
54787;SDS011;59598;48.112;16.280;2022-07-29T11:31:37;2.67;;;2.30;;
54787;SDS011;59598;48.112;16.280;2022-07-29T11:47:37;2.55;;;2.35;;
54787;SDS011;59598;48.112;16.280;2022-07-29T11:50:14;3.45;;;2.42;;
54787;SDS011;59598;48.112;16.280;2022-07-29T11:52:50;2.65;;;2.40;;
54787;SDS011;59598;48.112;16.280;2022-07-29T11:55:22;3.22;;;2.28;;
54787;SDS011;59598;48.112;16.280;2022-07-29T11:57:58;7.20;;;2.37;;
54787;SDS011;59598;48.112;16.280;2022-07-29T12:00:37;2.40;;;2.17;;
54787;SDS011;59598;48.112;16.280;2022-07-29T12:03:22;2.40;;;2.20;;
54787;SDS011;59598;48.112;16.280;2022-07-29T12:05:57;3.00;;;2.42;;
54787;SDS011;59598;48.112;16.280;2022-07-29T12:08:38;3.03;;;2.28;;
54787;SDS011;59598;48.112;16.280;2022-07-29T12:11:16;2.58;;;2.25;;
54787;SDS011;59598;48.112;16.280;2022-07-29T12:13:49;3.30;;;3.00;;
54787;SDS011;59598;48.112;16.280;2022-07-29T12:16:21;2.38;;;2.17;;
54787;SDS011;59598;48.112;16.280;2022-07-29T12:18:56;7.47;;;2.50;;
54787;SDS011;59598;48.112;16.280;2022-07-29T12:21:44;2.88;;;2.60;;
54787;SDS011;59598;48.112;16.280;2022-07-29T12:24:23;4.60;;;2.58;;
54787;SDS011;59598;48.112;16.280;2022-07-29T12:26:55;3.15;;;1.98;;
54787;SDS011;59598;48.112;16.280;2022-07-29T12:29:30;2.45;;;2.25;;
54787;SDS011;59598;48.112;16.280;2022-07-29T12:32:02;3.78;;;2.30;;
54787;SDS011;59598;48.112;16.280;2022-07-29T12:34:36;2.65;;;2.30;;
54787;SDS011;59598;48.112;16.280;2022-07-29T12:37:11;3.13;;;2.33;;
54787;SDS011;59598;48.112;16.280;2022-07-29T12:42:15;2.80;;;2.58;;
54787;SDS011;59598;48.112;16.280;2022-07-29T12:44:49;2.88;;;2.40;;
54787;SDS011;59598;48.112;16.280;2022-07-29T12:47:25;2.80;;;2.20;;
54787;SDS011;59598;48.112;16.280;2022-07-29T12:50:10;3.45;;;2.50;;
54787;SDS011;59598;48.112;16.280;2022-07-29T12:52:44;2.55;;;2.28;;
54787;SDS011;59598;48.112;16.280;2022-07-29T12:58:52;3.80;;;2.30;;
54787;SDS011;59598;48.112;16.280;2022-07-29T13:01:17;3.00;;;2.70;;
54787;SDS011;59598;48.112;16.280;2022-07-29T13:03:57;2.58;;;2.38;;
54787;SDS011;59598;48.112;16.280;2022-07-29T13:11:47;2.55;;;2.17;;
54787;SDS011;59598;48.112;16.280;2022-07-29T13:17:14;2.80;;;2.40;;
54787;SDS011;59598;48.112;16.280;2022-07-29T13:19:51;4.47;;;2.85;;
54787;SDS011;59598;48.112;16.280;2022-07-29T13:22:27;2.80;;;2.50;;
54787;SDS011;59598;48.112;16.280;2022-07-29T13:25:00;3.20;;;2.17;;
54787;SDS011;59598;48.112;16.280;2022-07-29T13:27:34;3.58;;;2.55;;
54787;SDS011;59598;48.112;16.280;2022-07-29T13:30:07;2.53;;;2.33;;
54787;SDS011;59598;48.112;16.280;2022-07-29T13:32:39;2.42;;;2.22;;
54787;SDS011;59598;48.112;16.280;2022-07-29T13:35:11;4.40;;;2.10;;
54787;SDS011;59598;48.112;16.280;2022-07-29T13:37:47;4.88;;;2.65;;
54787;SDS011;59598;48.112;16.280;2022-07-29T13:40:18;3.63;;;2.50;;
54787;SDS011;59598;48.112;16.280;2022-07-29T13:42:54;3.22;;;2.88;;
54787;SDS011;59598;48.112;16.280;2022-07-29T13:45:27;2.90;;;2.47;;
54787;SDS011;59598;48.112;16.280;2022-07-29T13:47:59;2.92;;;2.47;;
54787;SDS011;59598;48.112;16.280;2022-07-29T13:50:33;3.15;;;2.85;;
54787;SDS011;59598;48.112;16.280;2022-07-29T13:53:06;3.60;;;2.70;;
54787;SDS011;59598;48.112;16.280;2022-07-29T13:55:37;4.68;;;2.47;;
54787;SDS011;59598;48.112;16.280;2022-07-29T13:58:08;2.72;;;2.45;;
54787;SDS011;59598;48.112;16.280;2022-07-29T14:00:39;3.00;;;2.60;;
54787;SDS011;59598;48.112;16.280;2022-07-29T14:03:11;3.30;;;2.70;;
54787;SDS011;59598;48.112;16.280;2022-07-29T14:05:42;3.97;;;2.75;;
54787;SDS011;59598;48.112;16.280;2022-07-29T14:08:14;3.40;;;3.03;;
54787;SDS011;59598;48.112;16.280;2022-07-29T14:10:50;4.47;;;2.83;;
54787;SDS011;59598;48.112;16.280;2022-07-29T14:13:23;3.33;;;3.00;;
54787;SDS011;59598;48.112;16.280;2022-07-29T14:15:54;4.35;;;2.70;;
54787;SDS011;59598;48.112;16.280;2022-07-29T14:18:26;5.95;;;3.15;;
54787;SDS011;59598;48.112;16.280;2022-07-29T14:20:57;2.88;;;2.58;;
54787;SDS011;59598;48.112;16.280;2022-07-29T14:23:29;3.97;;;2.58;;
54787;SDS011;59598;48.112;16.280;2022-07-29T14:26:03;3.72;;;3.35;;
54787;SDS011;59598;48.112;16.280;2022-07-29T14:28:34;4.03;;;3.45;;
54787;SDS011;59598;48.112;16.280;2022-07-29T14:31:05;4.75;;;3.42;;
54787;SDS011;59598;48.112;16.280;2022-07-29T14:33:37;3.88;;;3.35;;
54787;SDS011;59598;48.112;16.280;2022-07-29T14:36:08;8.48;;;4.10;;
54787;SDS011;59598;48.112;16.280;2022-07-29T14:38:40;5.47;;;4.28;;
54787;SDS011;59598;48.112;16.280;2022-07-29T14:41:11;4.32;;;3.75;;
54787;SDS011;59598;48.112;16.280;2022-07-29T14:43:45;6.15;;;4.30;;
54787;SDS011;59598;48.112;16.280;2022-07-29T14:48:50;8.27;;;5.40;;
54787;SDS011;59598;48.112;16.280;2022-07-29T14:51:21;6.28;;;4.95;;
54787;SDS011;59598;48.112;16.280;2022-07-29T14:53:55;5.60;;;4.90;;
54787;SDS011;59598;48.112;16.280;2022-07-29T14:56:27;8.48;;;4.85;;
54787;SDS011;59598;48.112;16.280;2022-07-29T14:59:02;7.97;;;4.32;;
54787;SDS011;59598;48.112;16.280;2022-07-29T15:01:36;6.93;;;4.67;;
54787;SDS011;59598;48.112;16.280;2022-07-29T15:04:07;5.18;;;4.20;;
54787;SDS011;59598;48.112;16.280;2022-07-29T15:06:38;4.75;;;4.05;;
54787;SDS011;59598;48.112;16.280;2022-07-29T15:09:12;4.53;;;3.95;;
54787;SDS011;59598;48.112;16.280;2022-07-29T15:11:43;4.22;;;3.83;;
54787;SDS011;59598;48.112;16.280;2022-07-29T15:14:14;5.07;;;3.35;;
54787;SDS011;59598;48.112;16.280;2022-07-29T15:16:53;4.90;;;3.80;;
54787;SDS011;59598;48.112;16.280;2022-07-29T15:19:27;3.85;;;3.38;;
54787;SDS011;59598;48.112;16.280;2022-07-29T15:22:03;3.72;;;3.13;;
54787;SDS011;59598;48.112;16.280;2022-07-29T15:24:40;4.88;;;3.83;;
54787;SDS011;59598;48.112;16.280;2022-07-29T15:27:12;3.65;;;3.35;;
54787;SDS011;59598;48.112;16.280;2022-07-29T15:29:52;4.03;;;3.53;;
54787;SDS011;59598;48.112;16.280;2022-07-29T15:32:23;4.90;;;3.53;;
54787;SDS011;59598;48.112;16.280;2022-07-29T15:34:54;4.43;;;3.42;;
54787;SDS011;59598;48.112;16.280;2022-07-29T15:37:28;4.00;;;3.03;;
54787;SDS011;59598;48.112;16.280;2022-07-29T15:40:00;4.28;;;3.17;;
54787;SDS011;59598;48.112;16.280;2022-07-29T15:42:34;3.38;;;3.03;;
54787;SDS011;59598;48.112;16.280;2022-07-29T15:45:06;4.30;;;3.13;;
54787;SDS011;59598;48.112;16.280;2022-07-29T15:47:38;3.80;;;3.08;;
54787;SDS011;59598;48.112;16.280;2022-07-29T15:50:09;3.00;;;2.70;;
54787;SDS011;59598;48.112;16.280;2022-07-29T15:52:46;4.07;;;3.30;;
54787;SDS011;59598;48.112;16.280;2022-07-29T15:55:22;3.55;;;2.67;;
54787;SDS011;59598;48.112;16.280;2022-07-29T15:57:53;2.47;;;2.28;;
54787;SDS011;59598;48.112;16.280;2022-07-29T16:00:27;3.83;;;2.85;;
54787;SDS011;59598;48.112;16.280;2022-07-29T16:02:58;3.22;;;2.80;;
54787;SDS011;59598;48.112;16.280;2022-07-29T16:05:30;2.88;;;2.67;;
54787;SDS011;59598;48.112;16.280;2022-07-29T16:08:04;4.60;;;2.88;;
54787;SDS011;59598;48.112;16.280;2022-07-29T16:10:35;2.47;;;2.25;;
54787;SDS011;59598;48.112;16.280;2022-07-29T16:13:11;2.83;;;2.60;;
54787;SDS011;59598;48.112;16.280;2022-07-29T16:15:45;2.75;;;2.50;;
54787;SDS011;59598;48.112;16.280;2022-07-29T16:18:16;4.50;;;3.03;;
54787;SDS011;59598;48.112;16.280;2022-07-29T16:20:50;3.85;;;2.20;;
54787;SDS011;59598;48.112;16.280;2022-07-29T16:23:23;2.90;;;2.60;;
54787;SDS011;59598;48.112;16.280;2022-07-29T16:25:55;2.35;;;1.90;;
54787;SDS011;59598;48.112;16.280;2022-07-29T16:28:29;2.65;;;2.08;;
54787;SDS011;59598;48.112;16.280;2022-07-29T16:31:00;2.55;;;2.03;;